Time;durP1;ratioP1;P1;durP2;ratioP2;P2;SDS_P1;SDS_P2;PMS_P1;PMS_P2;Temp;Humidity;BMP_temperature;BMP_pressure;BME280_temperature;BME280_humidity;BME280_pressure;Samples;Min_cycle;Max_cycle;Signal;HPM_P1;HPM_P2
2023/04/27 00:00:43;;;;;;;4.50;3.70;;;1.80;99.90;;;;;;5032104;28;20049;-84
2023/04/27 00:03:09;;;;;;;6.28;3.90;;;1.80;99.90;;;;;;5028888;28;20144;-84
2023/04/27 00:05:38;;;;;;;4.93;3.80;;;1.80;99.90;;;;;;5047276;28;20049;-85
2023/04/27 00:08:10;;;;;;;5.97;4.18;;;1.70;99.90;;;;;;5028855;28;20404;-84
2023/04/27 00:10:35;;;;;;;6.10;4.03;;;1.80;99.90;;;;;;5037056;28;20087;-83
2023/04/27 00:13:01;;;;;;;6.07;4.03;;;1.70;99.90;;;;;;5031793;28;20048;-84
2023/04/27 00:15:27;;;;;;;6.00;3.72;;;1.60;99.90;;;;;;5031806;28;20041;-84
2023/04/27 00:17:52;;;;;;;10.20;4.07;;;1.60;99.90;;;;;;5030618;28;20538;-84
2023/04/27 00:20:19;;;;;;;5.90;3.78;;;1.60;99.90;;;;;;5029714;28;20146;-84
2023/04/27 00:22:45;;;;;;;7.95;4.20;;;1.50;99.90;;;;;;5029968;28;20174;-84
2023/04/27 00:25:11;;;;;;;7.28;4.18;;;1.50;99.90;;;;;;5046697;28;20061;-84
2023/04/27 00:27:39;;;;;;;5.47;4.00;;;1.50;99.90;;;;;;5014227;28;20344;-84
2023/04/27 00:30:05;;;;;;;6.88;3.90;;;1.50;99.90;;;;;;5031475;28;20057;-84
2023/04/27 00:32:31;;;;;;;7.10;4.10;;;1.50;99.90;;;;;;5027698;28;20216;-84
2023/04/27 00:34:56;;;;;;;7.45;4.28;;;1.40;99.90;;;;;;5030710;28;20560;-84
2023/04/27 00:37:22;;;;;;;6.47;4.25;;;1.40;99.90;;;;;;5029624;28;20060;-84
2023/04/27 00:39:48;;;;;;;8.77;4.70;;;1.40;99.90;;;;;;5027361;28;20080;-84
2023/04/27 00:42:16;;;;;;;7.55;4.38;;;1.40;99.90;;;;;;5000161;28;20050;-84
2023/04/27 00:44:41;;;;;;;7.20;3.78;;;1.30;99.90;;;;;;5027972;28;20634;-84
2023/04/27 00:47:08;;;;;;;6.88;5.10;;;1.30;99.90;;;;;;5027198;28;20128;-83
2023/04/27 00:49:34;;;;;;;8.00;4.43;;;1.30;99.90;;;;;;5028180;28;20061;-84
2023/04/27 00:51:59;;;;;;;8.35;4.30;;;1.30;99.90;;;;;;5027373;28;20053;-84
2023/04/27 00:54:25;;;;;;;6.43;4.20;;;1.30;99.90;;;;;;5025753;28;20042;-84
2023/04/27 00:56:54;;;;;;;6.60;4.75;;;1.20;99.90;;;;;;5026924;28;20041;-84
2023/04/27 00:59:20;;;;;;;7.68;4.57;;;1.20;99.90;;;;;;5026770;28;20422;-84
2023/04/27 01:01:46;;;;;;;6.47;4.47;;;1.20;99.90;;;;;;5029299;28;20059;-84
2023/04/27 01:04:12;;;;;;;7.18;4.32;;;1.20;99.90;;;;;;5026875;28;20399;-83
2023/04/27 01:06:40;;;;;;;5.22;3.78;;;1.10;99.90;;;;;;5025401;28;20041;-83
2023/04/27 01:09:06;;;;;;;5.25;3.83;;;1.10;99.90;;;;;;5019408;28;20045;-83
2023/04/27 01:11:32;;;;;;;10.55;4.55;;;1.10;99.90;;;;;;4992165;28;20436;-83
2023/04/27 01:14:03;;;;;;;8.23;4.72;;;1.10;99.90;;;;;;5023170;28;20438;-84
2023/04/27 01:16:30;;;;;;;6.70;4.37;;;1.10;99.90;;;;;;5027266;28;20087;-84
2023/04/27 01:18:56;;;;;;;8.60;4.32;;;1.10;99.90;;;;;;5010777;28;21116;-84
2023/04/27 01:21:21;;;;;;;7.45;4.70;;;1.10;99.90;;;;;;5025363;28;20041;-84
2023/04/27 01:23:47;;;;;;;6.30;4.25;;;1.00;99.90;;;;;;5026570;28;20056;-84
2023/04/27 01:26:15;;;;;;;6.03;4.78;;;1.00;99.90;;;;;;5025332;28;20049;-84
2023/04/27 01:28:41;;;;;;;6.68;4.35;;;1.00;99.90;;;;;;5026598;28;20075;-84
2023/04/27 01:31:07;;;;;;;10.45;5.05;;;1.00;99.90;;;;;;5028087;28;20041;-84
2023/04/27 01:33:32;;;;;;;8.50;3.92;;;1.00;99.90;;;;;;5031758;28;20094;-84
2023/04/27 01:35:58;;;;;;;7.43;4.55;;;1.00;99.90;;;;;;5018584;28;20167;-84
2023/04/27 01:38:23;;;;;;;7.18;4.95;;;0.90;99.90;;;;;;5026921;28;20052;-84
2023/04/27 01:40:49;;;;;;;9.98;5.32;;;0.90;99.90;;;;;;5027067;28;20140;-84
2023/04/27 01:43:15;;;;;;;6.93;4.95;;;0.90;99.90;;;;;;5028334;28;20050;-84
2023/04/27 01:45:40;;;;;;;7.80;4.88;;;0.90;99.90;;;;;;5021729;28;20038;-84
2023/04/27 01:48:06;;;;;;;8.63;4.32;;;0.90;99.90;;;;;;4990971;28;20550;-84
2023/04/27 01:50:32;;;;;;;6.55;4.57;;;0.90;99.90;;;;;;5012515;28;20128;-84
2023/04/27 01:52:57;;;;;;;7.53;4.50;;;0.80;99.90;;;;;;5006797;28;20077;-84
2023/04/27 01:55:23;;;;;;;8.93;4.10;;;0.80;99.90;;;;;;5006991;28;20049;-84
2023/04/27 01:57:48;;;;;;;7.95;4.70;;;0.80;99.90;;;;;;5007492;28;20099;-84
2023/04/27 02:00:14;;;;;;;8.68;5.20;;;0.80;99.90;;;;;;4991633;28;20474;-83
2023/04/27 02:02:40;;;;;;;8.07;4.57;;;0.70;99.90;;;;;;5006171;28;20461;-84
2023/04/27 02:05:06;;;;;;;9.00;4.55;;;0.70;99.90;;;;;;4990845;28;20045;-84
2023/04/27 02:07:31;;;;;;;7.43;4.30;;;0.70;99.90;;;;;;5005699;28;20907;-82
2023/04/27 02:09:57;;;;;;;7.93;4.60;;;0.70;99.90;;;;;;4989544;28;20045;-83
2023/04/27 02:12:22;;;;;;;8.07;4.85;;;0.70;99.90;;;;;;5006132;28;20164;-82
2023/04/27 02:14:48;;;;;;;7.05;4.30;;;0.70;99.90;;;;;;5006950;28;20046;-83
2023/04/27 02:17:13;;;;;;;8.52;4.45;;;0.70;99.90;;;;;;5006619;28;20053;-83
2023/04/27 02:19:39;;;;;;;8.25;4.57;;;0.60;99.90;;;;;;4990496;28;20060;-82
2023/04/27 02:22:05;;;;;;;8.35;4.38;;;0.60;99.90;;;;;;5006812;28;20061;-83
2023/04/27 02:24:31;;;;;;;6.63;4.47;;;0.60;99.90;;;;;;5000723;28;20046;-82
2023/04/27 02:26:56;;;;;;;7.63;4.55;;;0.60;99.90;;;;;;5002269;28;20049;-83
2023/04/27 02:29:22;;;;;;;7.50;4.70;;;0.80;99.90;;;;;;5005374;28;20045;-83
2023/04/27 02:31:47;;;;;;;7.22;4.10;;;0.60;99.90;;;;;;5008228;28;20052;-83
2023/04/27 02:34:13;;;;;;;7.95;4.40;;;0.50;99.90;;;;;;4989789;28;20081;-82
2023/04/27 02:36:39;;;;;;;7.70;4.38;;;0.50;99.90;;;;;;5011677;28;20045;-84
2023/04/27 02:39:04;;;;;;;6.90;4.38;;;0.50;99.90;;;;;;5010106;28;20088;-83
2023/04/27 02:41:31;;;;;;;7.95;4.10;;;0.50;99.90;;;;;;5026654;28;20057;-83
2023/04/27 02:43:57;;;;;;;9.63;4.13;;;0.50;99.90;;;;;;5026001;28;20077;-84
2023/04/27 02:46:22;;;;;;;6.03;3.88;;;0.50;99.90;;;;;;5026557;28;20080;-84
2023/04/27 02:48:48;;;;;;;5.72;3.72;;;0.50;99.90;;;;;;5025481;28;20037;-84
2023/04/27 02:51:13;;;;;;;6.22;3.78;;;0.50;99.90;;;;;;5024619;28;20392;-83
2023/04/27 02:53:39;;;;;;;6.60;4.45;;;0.50;99.90;;;;;;5024817;28;20041;-83
2023/04/27 02:56:05;;;;;;;6.75;4.28;;;0.50;99.90;;;;;;5026918;28;20060;-83
2023/04/27 02:58:30;;;;;;;6.78;4.57;;;0.50;99.90;;;;;;5024409;28;20041;-84
2023/04/27 03:00:56;;;;;;;7.40;4.25;;;0.50;99.90;;;;;;5025707;28;20068;-83
2023/04/27 03:03:22;;;;;;;6.68;4.45;;;1.10;99.90;;;;;;5025603;28;20096;-83
2023/04/27 03:05:48;;;;;;;6.10;3.63;;;0.50;99.90;;;;;;5025949;28;20484;-83
2023/04/27 03:08:14;;;;;;;7.90;5.25;;;0.50;99.90;;;;;;5024974;28;20049;-83
2023/04/27 03:10:40;;;;;;;6.60;3.92;;;0.50;99.90;;;;;;5025080;28;20129;-83
2023/04/27 03:13:05;;;;;;;7.15;4.28;;;0.50;99.90;;;;;;5024914;28;20061;-83
2023/04/27 03:15:31;;;;;;;7.20;4.10;;;0.50;99.90;;;;;;5025253;28;20081;-84
2023/04/27 03:17:56;;;;;;;6.75;4.90;;;0.40;99.90;;;;;;5011506;28;20053;-83
2023/04/27 03:20:22;;;;;;;6.43;4.55;;;0.40;99.90;;;;;;5011336;28;20437;-83
2023/04/27 03:22:48;;;;;;;7.40;4.25;;;0.40;99.90;;;;;;5026615;28;20029;-83
2023/04/27 03:25:13;;;;;;;6.28;4.32;;;0.40;99.90;;;;;;5029487;28;20551;-83
2023/04/27 03:27:39;;;;;;;6.53;3.95;;;0.40;99.90;;;;;;5029225;28;20045;-83
2023/04/27 03:30:06;;;;;;;6.95;4.68;;;0.40;99.90;;;;;;4998418;28;20274;-84
2023/04/27 03:32:31;;;;;;;10.10;4.65;;;0.40;99.90;;;;;;5015413;28;20099;-83
2023/04/27 03:34:57;;;;;;;6.95;4.22;;;0.40;99.90;;;;;;4995527;28;20480;-84
2023/04/27 03:37:23;;;;;;;8.73;4.28;;;0.40;99.90;;;;;;5015429;28;20041;-84
2023/04/27 03:39:48;;;;;;;7.45;4.40;;;0.30;99.90;;;;;;5028037;28;20072;-84
2023/04/27 03:42:14;;;;;;;6.68;4.38;;;0.30;99.90;;;;;;5028801;28;20049;-84
2023/04/27 03:44:40;;;;;;;6.05;4.97;;;0.30;99.90;;;;;;5029695;28;20045;-83
2023/04/27 03:47:08;;;;;;;7.25;3.90;;;0.30;99.90;;;;;;5028530;28;20063;-83
2023/04/27 03:49:39;;;;;;;9.23;4.38;;;0.30;99.90;;;;;;5028048;28;20482;-85
2023/04/27 03:52:08;;;;;;;5.63;4.00;;;0.30;99.90;;;;;;5030335;28;20456;-83
2023/04/27 03:54:36;;;;;;;7.70;3.95;;;0.30;99.90;;;;;;5028213;28;20055;-83
2023/04/27 03:57:03;;;;;;;6.15;4.00;;;0.20;99.90;;;;;;5029765;28;20452;-83
2023/04/27 03:59:29;;;;;;;7.13;3.97;;;0.20;99.90;;;;;;5036206;28;20045;-83
2023/04/27 04:01:54;;;;;;;8.27;4.28;;;0.20;99.90;;;;;;5032662;28;20047;-83
2023/04/27 04:04:20;;;;;;;7.60;4.32;;;0.20;99.90;;;;;;5018192;28;20050;-83
2023/04/27 04:06:45;;;;;;;5.13;3.80;;;0.10;99.90;;;;;;5030045;28;20085;-83
2023/04/27 04:09:11;;;;;;;8.25;4.40;;;0.10;99.90;;;;;;5029296;28;20052;-83
2023/04/27 04:11:38;;;;;;;6.38;4.22;;;0.10;99.90;;;;;;5030466;28;20052;-83
2023/04/27 04:14:03;;;;;;;8.27;4.30;;;0.10;99.90;;;;;;5012704;28;20038;-82
2023/04/27 04:16:29;;;;;;;6.43;3.97;;;0.10;99.90;;;;;;5012435;28;20404;-83
2023/04/27 04:18:55;;;;;;;6.13;4.07;;;0.10;99.90;;;;;;5027699;28;20239;-83
2023/04/27 04:21:20;;;;;;;7.03;4.05;;;0.10;99.90;;;;;;5028444;28;20050;-83
2023/04/27 04:23:46;;;;;;;6.55;3.95;;;0.10;99.90;;;;;;5021009;28;20515;-83
2023/04/27 04:26:12;;;;;;;9.57;4.40;;;0.10;99.90;;;;;;5009675;28;20038;-83
2023/04/27 04:28:38;;;;;;;8.05;4.38;;;0.10;99.90;;;;;;5027026;28;20060;-84
2023/04/27 04:31:04;;;;;;;8.35;5.07;;;0.10;99.90;;;;;;5027899;28;20046;-83
2023/04/27 04:33:30;;;;;;;8.23;4.20;;;0.20;99.90;;;;;;5027413;28;20411;-83
2023/04/27 04:35:56;;;;;;;7.43;4.57;;;0.20;99.90;;;;;;5029801;28;20037;-83
2023/04/27 04:38:22;;;;;;;7.53;4.55;;;0.30;99.90;;;;;;5026274;28;20156;-83
2023/04/27 04:40:49;;;;;;;8.30;4.25;;;0.30;99.90;;;;;;5027128;28;20065;-83
2023/04/27 04:43:16;;;;;;;7.15;4.43;;;0.30;99.90;;;;;;5027773;28;20522;-83
2023/04/27 04:45:42;;;;;;;7.80;4.53;;;0.40;99.90;;;;;;5025792;28;20052;-83
2023/04/27 04:48:08;;;;;;;7.10;4.10;;;0.40;99.90;;;;;;5027384;28;20750;-82
2023/04/27 04:50:33;;;;;;;8.60;5.38;;;0.40;99.90;;;;;;5027941;28;20049;-83
2023/04/27 04:52:59;;;;;;;11.88;4.53;;;0.50;99.90;;;;;;5027113;28;20132;-82
2023/04/27 04:55:27;;;;;;;5.55;4.15;;;0.50;99.90;;;;;;5027892;28;20038;-83
2023/04/27 04:57:53;;;;;;;7.30;4.63;;;0.50;99.90;;;;;;5027418;28;20082;-82
2023/04/27 05:00:19;;;;;;;6.75;3.90;;;0.50;99.90;;;;;;5024587;28;20555;-83
2023/04/27 05:02:45;;;;;;;9.15;4.43;;;0.60;99.90;;;;;;5024224;28;20053;-83
2023/04/27 05:05:10;;;;;;;7.82;4.57;;;0.60;99.90;;;;;;5026198;28;20048;-83
2023/04/27 05:07:36;;;;;;;7.25;4.50;;;0.70;99.90;;;;;;5027836;28;20053;-84
2023/04/27 05:10:02;;;;;;;14.30;4.72;;;0.70;99.90;;;;;;5028050;28;20080;-83
2023/04/27 05:12:27;;;;;;;6.72;4.15;;;0.80;99.90;;;;;;5028364;28;20444;-84
2023/04/27 05:14:53;;;;;;;7.20;4.57;;;0.80;99.90;;;;;;5025264;28;20061;-82
2023/04/27 05:17:19;;;;;;;8.73;4.85;;;0.80;99.90;;;;;;5028628;28;20102;-83
2023/04/27 05:19:45;;;;;;;7.15;4.45;;;0.90;99.90;;;;;;5026478;28;20041;-82
2023/04/27 05:22:11;;;;;;;7.15;4.45;;;1.00;99.90;;;;;;5027269;28;20499;-82
2023/04/27 05:24:36;;;;;;;113.70;12.10;;;1.20;99.90;;;;;;5025455;28;20040;-83
2023/04/27 05:27:05;;;;;;;15.43;7.28;;;1.50;99.90;;;;;;5029628;28;20095;-82
2023/04/27 05:29:30;;;;;;;11.77;7.60;;;1.90;99.90;;;;;;5027629;28;20041;-83
2023/04/27 05:31:56;;;;;;;27.25;15.15;;;2.10;99.90;;;;;;5027470;28;20053;-83
2023/04/27 05:34:21;;;;;;;20.08;12.77;;;2.10;99.90;;;;;;5028392;28;20557;-82
2023/04/27 05:36:47;;;;;;;19.52;10.85;;;1.80;99.90;;;;;;5026003;28;20041;-82
2023/04/27 05:39:13;;;;;;;14.85;8.52;;;2.10;99.90;;;;;;5033033;28;20053;-83
2023/04/27 05:41:39;;;;;;;13.45;6.43;;;2.10;99.90;;;;;;5048309;28;20059;-83
2023/04/27 05:44:05;;;;;;;11.95;6.82;;;2.20;99.90;;;;;;5047622;28;20064;-83
2023/04/27 05:46:31;;;;;;;9.77;6.25;;;2.30;99.90;;;;;;5029432;28;20137;-83
2023/04/27 05:48:56;;;;;;;10.02;6.18;;;2.60;99.90;;;;;;5029886;28;20606;-85
2023/04/27 05:51:22;;;;;;;12.02;6.25;;;3.40;99.90;;;;;;5048241;28;20045;-84
2023/04/27 05:53:48;;;;;;;11.02;6.07;;;4.40;99.90;;;;;;5030390;28;20211;-83
2023/04/27 05:56:13;;;;;;;10.45;6.22;;;5.40;99.90;;;;;;5028747;28;20098;-83
2023/04/27 05:58:39;;;;;;;10.27;7.13;;;6.30;99.90;;;;;;5047676;28;20041;-83
2023/04/27 06:01:06;;;;;;;10.18;6.85;;;7.00;99.90;;;;;;5058300;28;20102;-83
2023/04/27 06:03:31;;;;;;;10.23;7.32;;;7.70;99.90;;;;;;5046343;28;20071;-84
2023/04/27 06:05:59;;;;;;;10.60;6.85;;;8.20;99.90;;;;;;5013753;28;20052;-83
2023/04/27 06:08:25;;;;;;;9.57;6.25;;;8.20;99.90;;;;;;5029743;28;20211;-83
2023/04/27 06:10:51;;;;;;;8.30;5.80;;;7.70;99.90;;;;;;5030212;28;20037;-83
2023/04/27 06:13:17;;;;;;;7.28;5.95;;;7.10;99.90;;;;;;5027466;28;20056;-83
2023/04/27 06:15:42;;;;;;;9.48;5.95;;;6.70;99.90;;;;;;5028894;28;20045;-83
2023/04/27 06:18:08;;;;;;;7.35;5.65;;;6.30;99.90;;;;;;5047140;28;20041;-83
2023/04/27 06:20:35;;;;;;;7.18;5.20;;;6.10;99.90;;;;;;5029979;28;20045;-83
2023/04/27 06:23:01;;;;;;;8.90;6.07;;;5.90;99.90;;;;;;5047926;28;20071;-83
2023/04/27 06:25:27;;;;;;;14.20;5.47;;;5.70;99.90;;;;;;5046721;28;20530;-82
2023/04/27 06:27:56;;;;;;;7.18;5.25;;;5.60;99.90;;;;;;5046634;28;20049;-82
2023/04/27 06:30:25;;;;;;;10.15;6.03;;;5.50;99.90;;;;;;5028861;28;20060;-82
2023/04/27 06:32:51;;;;;;;7.50;5.80;;;5.50;99.90;;;;;;5047814;28;20528;-81
2023/04/27 06:35:17;;;;;;;7.90;6.45;;;5.50;99.90;;;;;;5028581;28;20041;-82
2023/04/27 06:37:43;;;;;;;8.27;5.03;;;5.60;99.90;;;;;;5029483;28;20041;-83
2023/04/27 06:40:09;;;;;;;8.25;5.15;;;5.60;99.90;;;;;;5029322;28;20533;-82
2023/04/27 06:42:35;;;;;;;8.32;5.18;;;5.70;99.90;;;;;;5028834;28;20054;-82
2023/04/27 06:45:01;;;;;;;7.32;5.03;;;5.80;99.90;;;;;;5046644;28;20495;-81
2023/04/27 06:47:26;;;;;;;7.95;4.88;;;5.90;99.90;;;;;;5028750;28;20045;-82
2023/04/27 06:49:52;;;;;;;5.85;4.35;;;6.00;99.90;;;;;;5029854;28;20063;-83
2023/04/27 06:52:17;;;;;;;10.02;4.80;;;6.20;99.90;;;;;;5032767;28;20049;-83
2023/04/27 06:54:43;;;;;;;7.68;4.93;;;6.30;99.90;;;;;;5032904;28;20098;-84
2023/04/27 06:57:09;;;;;;;9.50;4.97;;;6.40;99.90;;;;;;5033358;28;20047;-83
2023/04/27 06:59:35;;;;;;;6.70;4.38;;;6.60;99.90;;;;;;5033867;28;20124;-83
2023/04/27 07:02:00;;;;;;;6.93;3.83;;;6.70;99.90;;;;;;5028030;28;20524;-83
2023/04/27 07:04:26;;;;;;;7.82;4.38;;;6.80;99.90;;;;;;5040490;28;20153;-84
2023/04/27 07:06:52;;;;;;;9.90;6.15;;;6.90;99.90;;;;;;5050630;28;20052;-84
2023/04/27 07:09:18;;;;;;;6.93;4.40;;;7.10;99.90;;;;;;5026839;28;20050;-83
2023/04/27 07:11:43;;;;;;;6.85;4.38;;;7.20;99.90;;;;;;5041689;28;20578;-83
2023/04/27 07:14:09;;;;;;;5.45;4.43;;;7.30;99.90;;;;;;5020253;28;20072;-82
2023/04/27 07:16:35;;;;;;;5.65;4.00;;;7.50;99.90;;;;;;5049958;28;20040;-82
2023/04/27 07:19:00;;;;;;;8.85;4.53;;;7.60;99.90;;;;;;5048879;28;20055;-83
2023/04/27 07:21:27;;;;;;;8.43;4.63;;;7.60;99.90;;;;;;5049295;28;20429;-83
2023/04/27 07:23:53;;;;;;;4.45;3.53;;;7.80;99.90;;;;;;5041482;28;20049;-84
2023/04/27 07:26:18;;;;;;;5.57;4.30;;;7.90;99.90;;;;;;5024281;28;20048;-83
2023/04/27 07:28:46;;;;;;;9.02;4.53;;;8.00;99.90;;;;;;5012726;28;20049;-82
2023/04/27 07:31:13;;;;;;;10.02;3.67;;;8.20;99.90;;;;;;5016513;28;20538;-83
2023/04/27 07:33:38;;;;;;;5.50;3.50;;;8.20;99.90;;;;;;5013120;28;20038;-83
2023/04/27 07:36:04;;;;;;;7.43;3.15;;;8.40;99.90;;;;;;5031412;28;20056;-80
2023/04/27 07:38:30;;;;;;;11.02;3.50;;;8.60;99.90;;;;;;5060379;28;20050;-80
2023/04/27 07:41:03;;;;;;;7.28;3.90;;;8.70;99.90;;;;;;5030559;28;20052;-80
2023/04/27 07:43:31;;;;;;;5.97;3.53;;;8.80;99.90;;;;;;5024492;28;20037;-82
2023/04/27 07:45:57;;;;;;;4.32;2.83;;;9.00;99.90;;;;;;5019211;28;20048;-81
2023/04/27 07:48:23;;;;;;;3.83;2.95;;;9.10;99.90;;;;;;5063822;28;20106;-81
2023/04/27 07:50:49;;;;;;;4.22;3.00;;;9.10;99.90;;;;;;5028580;28;20045;-81
2023/04/27 07:53:15;;;;;;;4.45;3.28;;;9.30;99.90;;;;;;5011206;28;20152;-79
2023/04/27 07:55:42;;;;;;;4.95;2.88;;;9.30;99.90;;;;;;5038510;28;20507;-80
2023/04/27 07:58:08;;;;;;;3.17;2.70;;;9.40;99.90;;;;;;5048494;28;20059;-80
2023/04/27 08:00:34;;;;;;;7.95;2.70;;;9.50;99.90;;;;;;5044239;28;20052;-80
2023/04/27 08:03:00;;;;;;;6.18;2.90;;;9.60;99.90;;;;;;5028741;28;20041;-80
2023/04/27 08:05:25;;;;;;;3.10;2.80;;;9.70;99.90;;;;;;5031277;28;20049;-80
2023/04/27 08:07:52;;;;;;;3.80;2.88;;;9.70;99.90;;;;;;5050212;28;20521;-80
2023/04/27 08:10:18;;;;;;;4.10;3.38;;;9.70;99.90;;;;;;5029363;28;20564;-79
2023/04/27 08:12:43;;;;;;;3.85;3.25;;;9.70;99.90;;;;;;5042315;28;20077;-81
2023/04/27 08:15:10;;;;;;;4.35;2.60;;;9.80;99.90;;;;;;5031174;28;20452;-80
2023/04/27 08:17:37;;;;;;;3.08;2.78;;;9.90;99.90;;;;;;5032228;28;20049;-79
2023/04/27 08:20:05;;;;;;;3.28;2.55;;;10.00;99.90;;;;;;5050585;28;20052;-80
2023/04/27 08:22:31;;;;;;;3.70;2.70;;;10.20;99.90;;;;;;5030803;28;20041;-80
2023/04/27 08:24:57;;;;;;;6.00;2.95;;;10.30;99.90;;;;;;5049234;28;20048;-79
2023/04/27 08:27:22;;;;;;;4.55;2.78;;;10.30;99.90;;;;;;5029730;28;20087;-80
2023/04/27 08:29:48;;;;;;;3.03;2.72;;;10.30;99.90;;;;;;5047851;28;20037;-80
2023/04/27 08:32:14;;;;;;;4.03;2.67;;;10.40;99.90;;;;;;5029808;28;20388;-80
2023/04/27 08:34:40;;;;;;;5.25;2.75;;;10.50;99.90;;;;;;5014147;28;20131;-79
2023/04/27 08:37:08;;;;;;;6.53;3.53;;;10.50;99.90;;;;;;5048294;28;20131;-80
2023/04/27 08:39:34;;;;;;;9.73;2.53;;;10.50;99.90;;;;;;5002135;28;20046;-79
2023/04/27 08:41:59;;;;;;;4.35;3.03;;;10.60;99.90;;;;;;5007941;28;20393;-80
2023/04/27 08:44:25;;;;;;;4.65;2.63;;;10.60;99.90;;;;;;5009811;28;20143;-80
2023/04/27 08:46:51;;;;;;;5.28;3.00;;;10.70;99.90;;;;;;5007952;28;20095;-79
2023/04/27 08:49:16;;;;;;;5.93;3.10;;;10.80;99.90;;;;;;5008006;28;20046;-80
2023/04/27 08:51:43;;;;;;;3.83;2.97;;;10.80;99.90;;;;;;5008834;28;20050;-81
2023/04/27 08:54:08;;;;;;;3.85;2.75;;;10.90;99.90;;;;;;5011652;28;20500;-80
2023/04/27 08:56:34;;;;;;;5.53;2.97;;;11.00;99.90;;;;;;5027461;28;20045;-80
2023/04/27 08:59:02;;;;;;;3.38;2.83;;;11.20;99.90;;;;;;5027726;28;20049;-79
2023/04/27 09:01:32;;;;;;;4.22;2.50;;;11.20;99.90;;;;;;5016029;28;20037;-80
2023/04/27 09:04:00;;;;;;;2.95;2.42;;;11.20;99.90;;;;;;5007843;28;20045;-81
2023/04/27 09:06:33;;;;;;;4.90;2.83;;;11.30;99.90;;;;;;5007786;28;20049;-80
2023/04/27 09:08:59;;;;;;;5.68;2.85;;;11.30;99.90;;;;;;5008516;28;20046;-80
2023/04/27 09:11:33;;;;;;;3.72;3.10;;;11.60;99.90;;;;;;5007749;28;20361;-80
2023/04/27 09:14:01;;;;;;;5.63;3.10;;;11.30;98.60;;;;;;5007881;28;20038;-80
2023/04/27 09:16:28;;;;;;;6.05;3.13;;;11.20;99.70;;;;;;5009184;28;20046;-80
2023/04/27 09:18:56;;;;;;;3.33;3.03;;;11.40;99.90;;;;;;5007519;28;20144;-79
2023/04/27 09:21:26;;;;;;;3.90;3.50;;;11.50;99.70;;;;;;5003336;28;20501;-79
2023/04/27 09:23:53;;;;;;;4.95;3.30;;;11.50;96.40;;;;;;5001632;28;20042;-79
2023/04/27 09:26:26;;;;;;;4.03;3.40;;;11.60;99.90;;;;;;5007596;28;20137;-79
2023/04/27 09:28:56;;;;;;;6.18;3.65;;;11.60;92.40;;;;;;5007837;28;20049;-80
2023/04/27 09:31:30;;;;;;;4.15;3.15;;;11.70;98.80;;;;;;5006644;28;20038;-79
2023/04/27 09:33:56;;;;;;;5.22;3.70;;;11.90;96.00;;;;;;5007446;28;20411;-80
2023/04/27 09:36:26;;;;;;;4.38;3.97;;;12.00;98.10;;;;;;5003955;28;20453;-80
2023/04/27 09:38:52;;;;;;;5.00;3.60;;;12.10;97.60;;;;;;5009103;28;20052;-80
2023/04/27 09:41:18;;;;;;;6.88;4.10;;;12.20;98.10;;;;;;5043630;28;20049;-78
2023/04/27 09:43:45;;;;;;;5.35;3.65;;;12.20;96.90;;;;;;5018901;28;20056;-82
2023/04/27 09:46:12;;;;;;;4.55;3.70;;;12.20;96.30;;;;;;5038161;28;20048;-78
2023/04/27 09:48:39;;;;;;;5.03;3.75;;;12.00;93.70;;;;;;5042539;28;20079;-78
2023/04/27 09:51:06;;;;;;;4.63;3.65;;;12.00;96.20;;;;;;5040680;28;20042;-78
2023/04/27 09:53:59;;;;;;;4.35;3.55;;;12.40;96.90;;;;;;5013902;28;20487;-78
2023/04/27 09:57:14;;;;;;;8.65;4.25;;;12.20;92.50;;;;;;5025065;28;20049;-79
2023/04/27 09:59:52;;;;;;;5.40;3.50;;;12.10;75.00;;;;;;5025397;28;20829;-78
2023/04/27 10:02:20;;;;;;;5.35;3.78;;;12.10;95.30;;;;;;5039753;28;20045;-78
2023/04/27 10:04:56;;;;;;;4.13;3.72;;;12.10;95.30;;;;;;5043506;28;20056;-78
2023/04/27 10:07:25;;;;;;;8.85;4.00;;;12.20;96.30;;;;;;5045895;28;20052;-78
2023/04/27 10:09:50;;;;;;;4.18;3.67;;;12.40;96.20;;;;;;5026995;28;20040;-78
2023/04/27 10:12:19;;;;;;;4.55;3.60;;;12.50;95.10;;;;;;5016733;28;20053;-78
2023/04/27 10:14:50;;;;;;;5.40;3.65;;;12.60;94.60;;;;;;5000784;28;20527;-78
2023/04/27 10:17:16;;;;;;;5.50;3.38;;;12.70;94.30;;;;;;5034989;28;20124;-78
2023/04/27 10:19:55;;;;;;;5.47;3.95;;;12.70;94.60;;;;;;5033991;28;20041;-77
2023/04/27 10:22:22;;;;;;;6.75;3.95;;;12.90;89.50;;;;;;5045937;28;20045;-78
2023/04/27 10:24:50;;;;;;;5.40;3.80;;;13.00;94.60;;;;;;5046369;28;20037;-78
2023/04/27 10:27:18;;;;;;;5.03;4.18;;;13.00;93.60;;;;;;5047828;28;20265;-78
2023/04/27 10:29:46;;;;;;;6.88;4.10;;;13.10;94.60;;;;;;5045775;28;20399;-78
2023/04/27 10:32:24;;;;;;;5.63;4.60;;;13.10;93.00;;;;;;5046261;28;20522;-78
2023/04/27 10:34:52;;;;;;;4.32;3.92;;;13.10;85.90;;;;;;5047164;28;20052;-78
2023/04/27 10:37:24;;;;;;;4.30;3.60;;;13.20;91.80;;;;;;5029776;28;20155;-78
2023/04/27 10:39:52;;;;;;;6.63;4.32;;;13.20;92.20;;;;;;5045248;28;20049;-78
2023/04/27 10:42:27;;;;;;;5.18;4.00;;;13.30;91.80;;;;;;5027126;28;20142;-78
2023/04/27 10:44:56;;;;;;;6.85;3.97;;;13.30;82.50;;;;;;5047136;28;20088;-78
2023/04/27 10:47:23;;;;;;;4.57;4.03;;;13.30;88.20;;;;;;5047448;28;20217;-78
2023/04/27 10:49:53;;;;;;;9.20;5.20;;;13.30;89.10;;;;;;5028985;28;20083;-78
2023/04/27 10:52:18;;;;;;;5.68;4.75;;;13.50;84.80;;;;;;5039113;28;20045;-79
2023/04/27 10:54:45;;;;;;;7.97;5.43;;;13.60;87.60;;;;;;5026755;28;20572;-78
2023/04/27 10:57:11;;;;;;;5.55;4.15;;;13.70;87.00;;;;;;5028180;28;20597;-78
2023/04/27 10:59:51;;;;;;;5.45;3.88;;;13.70;86.70;;;;;;5047048;28;20080;-78
2023/04/27 11:02:23;;;;;;;5.95;4.07;;;13.80;63.70;;;;;;5046589;28;20125;-78
2023/04/27 11:04:49;;;;;;;6.80;4.53;;;13.80;87.20;;;;;;5046775;28;20513;-78
2023/04/27 11:07:27;;;;;;;5.00;3.95;;;14.00;86.30;;;;;;5047864;28;20049;-78
2023/04/27 11:09:53;;;;;;;4.63;3.90;;;14.10;72.30;;;;;;4994834;28;20041;-78
2023/04/27 11:12:20;;;;;;;4.07;3.67;;;14.10;82.70;;;;;;5034295;28;20384;-78
2023/04/27 11:14:46;;;;;;;4.97;3.92;;;14.10;80.80;;;;;;5046496;28;20095;-78
2023/04/27 11:17:12;;;;;;;5.32;3.88;;;14.10;81.70;;;;;;5045606;28;20608;-78
2023/04/27 11:19:47;;;;;;;5.43;3.75;;;14.00;79.80;;;;;;5045263;28;20112;-78
2023/04/27 11:22:17;;;;;;;8.02;3.90;;;14.20;73.30;;;;;;5044656;28;20055;-78
2023/04/27 11:24:47;;;;;;;5.75;4.57;;;14.30;79.10;;;;;;5043389;28;20037;-79
2023/04/27 11:27:13;;;;;;;6.63;4.47;;;14.30;73.10;;;;;;5010787;28;20056;-78
2023/04/27 11:29:39;;;;;;;5.18;4.63;;;14.30;77.60;;;;;;5027730;28;20045;-78
2023/04/27 11:32:05;;;;;;;5.60;4.20;;;14.30;76.80;;;;;;5010716;28;20044;-78
2023/04/27 11:34:35;;;;;;;6.45;4.10;;;14.30;76.80;;;;;;5026753;28;20550;-78
2023/04/27 11:37:05;;;;;;;4.78;3.90;;;14.40;77.60;;;;;;5047630;28;20511;-79
2023/04/27 11:39:40;;;;;;;8.32;4.20;;;14.50;73.10;;;;;;5049685;28;20440;-79
2023/04/27 11:42:18;;;;;;;5.97;4.10;;;14.50;65.50;;;;;;5031466;28;20048;-79
2023/04/27 11:44:54;;;;;;;5.18;3.92;;;14.30;65.70;;;;;;5051011;28;20152;-79
2023/04/27 11:47:21;;;;;;;4.45;3.45;;;14.20;67.00;;;;;;5049714;28;20044;-79
2023/04/27 11:49:51;;;;;;;6.70;4.50;;;14.20;72.50;;;;;;5030862;28;20045;-79
2023/04/27 11:52:17;;;;;;;8.77;3.67;;;14.20;67.70;;;;;;5030558;28;20047;-78
2023/04/27 11:54:48;;;;;;;5.18;3.58;;;14.20;73.20;;;;;;5032290;28;20048;-78
2023/04/27 11:57:13;;;;;;;3.97;3.40;;;14.20;65.40;;;;;;5050308;28;20518;-79
2023/04/27 11:59:39;;;;;;;5.80;3.38;;;14.30;71.50;;;;;;5031794;28;20041;-78
2023/04/27 12:02:04;;;;;;;5.05;3.25;;;14.40;71.10;;;;;;5030998;28;20033;-79
2023/04/27 12:04:30;;;;;;;5.57;3.88;;;14.20;68.90;;;;;;5049274;28;20088;-79
2023/04/27 12:06:56;;;;;;;5.47;3.38;;;14.20;68.00;;;;;;5048267;28;20513;-77
2023/04/27 12:09:22;;;;;;;4.60;3.78;;;14.20;71.10;;;;;;5049196;28;20488;-78
2023/04/27 12:11:48;;;;;;;5.53;3.53;;;14.10;69.70;;;;;;5049877;28;20045;-78
2023/04/27 12:14:13;;;;;;;3.97;3.58;;;14.00;71.60;;;;;;5047931;28;20113;-79
2023/04/27 12:16:39;;;;;;;5.65;3.53;;;14.00;70.70;;;;;;5049002;28;20041;-80
2023/04/27 12:19:05;;;;;;;4.57;3.08;;;14.00;69.40;;;;;;5031270;28;20396;-79
2023/04/27 12:21:31;;;;;;;4.30;3.25;;;14.20;69.90;;;;;;5031264;28;20049;-78
2023/04/27 12:23:56;;;;;;;5.38;3.67;;;14.40;69.90;;;;;;5030381;28;20103;-78
2023/04/27 12:26:22;;;;;;;4.65;3.35;;;14.30;65.40;;;;;;5049458;28;20500;-78
2023/04/27 12:28:48;;;;;;;6.30;3.70;;;14.20;64.90;;;;;;5030784;28;20136;-78
2023/04/27 12:31:15;;;;;;;3.83;3.33;;;14.30;64.80;;;;;;5049425;28;20044;-78
2023/04/27 12:33:41;;;;;;;4.03;3.30;;;14.40;66.40;;;;;;5048497;28;20041;-79
2023/04/27 12:36:07;;;;;;;4.90;3.92;;;14.40;67.10;;;;;;5046538;28;20044;-78
2023/04/27 12:38:33;;;;;;;7.38;3.80;;;14.30;64.60;;;;;;5027006;28;20039;-79
2023/04/27 12:41:01;;;;;;;6.07;4.47;;;14.30;66.30;;;;;;5026334;28;20072;-79
2023/04/27 12:43:27;;;;;;;5.07;3.50;;;14.30;65.40;;;;;;5032094;28;20549;-78
2023/04/27 12:45:52;;;;;;;5.88;3.85;;;14.30;67.40;;;;;;5046791;28;20064;-78
2023/04/27 12:48:18;;;;;;;5.57;3.85;;;14.40;67.50;;;;;;5027532;28;20128;-78
2023/04/27 12:50:43;;;;;;;4.60;3.65;;;14.50;67.40;;;;;;5048797;28;20333;-77